Time;durP1;ratioP1;P1;durP2;ratioP2;P2;SDS_P1;SDS_P2;PMS_P1;PMS_P2;Temp;Humidity;BMP_temperature;BMP_pressure;BME280_temperature;BME280_humidity;BME280_pressure;Samples;Min_cycle;Max_cycle;Signal;HPM_P1;HPM_P2
2021/03/05 00:00:35;;;;;;;107.13;53.13;;;;;;;;;;4329117;33;20215;-55
2021/03/05 00:03:01;;;;;;;102.50;50.73;;;;;;;;;;4329084;33;20247;-55
2021/03/05 00:05:26;;;;;;;74.50;40.47;;;;;;;;;;4328053;33;20278;-55
2021/03/05 00:07:52;;;;;;;75.03;37.77;;;;;;;;;;4329496;33;20234;-54
2021/03/05 00:10:23;;;;;;;78.20;37.20;;;;;;;;;;4327565;33;20226;-54
2021/03/05 00:12:48;;;;;;;83.43;41.30;;;;;;;;;;4328195;33;20299;-55
2021/03/05 00:15:14;;;;;;;78.20;41.23;;;;;;;;;;4329249;33;20948;-54
2021/03/05 00:17:40;;;;;;;100.90;57.20;;;;;;;;;;4329463;33;20752;-55
2021/03/05 00:20:09;;;;;;;97.47;51.40;;;;;;;;;;4327746;33;20245;-55
2021/03/05 00:22:35;;;;;;;94.77;49.40;;;;;;;;;;4328463;33;20262;-54
2021/03/05 00:25:00;;;;;;;100.07;52.03;;;;;;;;;;4328738;33;20235;-55
2021/03/05 00:27:26;;;;;;;111.00;53.50;;;;;;;;;;4329504;33;20715;-55
2021/03/05 00:29:51;;;;;;;102.87;52.07;;;;;;;;;;4328542;33;20294;-54
2021/03/05 00:32:17;;;;;;;105.33;56.30;;;;;;;;;;4329548;33;20270;-54
2021/03/05 00:34:42;;;;;;;117.63;58.50;;;;;;;;;;4328171;33;20252;-54
2021/03/05 00:37:08;;;;;;;95.90;51.67;;;;;;;;;;4329204;33;20336;-54
2021/03/05 00:39:33;;;;;;;89.20;47.27;;;;;;;;;;4328744;33;20255;-54
2021/03/05 00:41:59;;;;;;;68.10;39.00;;;;;;;;;;4329504;33;20279;-54
2021/03/05 00:44:25;;;;;;;76.43;40.93;;;;;;;;;;4327500;33;20251;-55
2021/03/05 00:46:50;;;;;;;81.37;39.40;;;;;;;;;;4329304;33;20290;-55
2021/03/05 00:49:16;;;;;;;80.40;38.50;;;;;;;;;;4332727;33;20223;-54
2021/03/05 00:51:41;;;;;;;67.50;36.60;;;;;;;;;;4327731;33;20286;-55
2021/03/05 00:54:07;;;;;;;78.60;37.07;;;;;;;;;;4327998;33;20235;-54
2021/03/05 00:56:33;;;;;;;74.30;38.00;;;;;;;;;;4328775;33;20285;-55
2021/03/05 00:58:58;;;;;;;68.30;35.73;;;;;;;;;;4328992;33;20522;-55
2021/03/05 01:01:24;;;;;;;76.63;38.17;;;;;;;;;;4339207;33;20282;-55
2021/03/05 01:03:49;;;;;;;73.67;34.33;;;;;;;;;;4341960;33;20452;-55
2021/03/05 01:06:15;;;;;;;74.30;37.63;;;;;;;;;;4330119;33;20211;-55
2021/03/05 01:08:40;;;;;;;90.40;46.23;;;;;;;;;;4334374;33;20298;-55
2021/03/05 01:11:06;;;;;;;82.30;43.53;;;;;;;;;;4330340;33;20381;-53
2021/03/05 01:13:31;;;;;;;84.03;44.53;;;;;;;;;;4328560;33;20258;-57
2021/03/05 01:15:57;;;;;;;94.40;45.47;;;;;;;;;;4327801;33;20751;-54
2021/03/05 01:18:22;;;;;;;83.60;44.00;;;;;;;;;;4328826;33;20248;-54
2021/03/05 01:20:48;;;;;;;80.43;41.10;;;;;;;;;;4328378;33;20301;-54
2021/03/05 01:23:15;;;;;;;74.40;36.27;;;;;;;;;;4328549;33;20257;-53
2021/03/05 01:25:41;;;;;;;71.07;36.53;;;;;;;;;;4329688;33;20211;-55
2021/03/05 01:28:06;;;;;;;72.87;38.07;;;;;;;;;;4328584;33;20219;-54
2021/03/05 01:30:32;;;;;;;72.10;40.83;;;;;;;;;;4328285;33;20384;-55
2021/03/05 01:32:57;;;;;;;82.30;45.23;;;;;;;;;;4328299;33;20347;-54
2021/03/05 01:35:25;;;;;;;89.97;43.73;;;;;;;;;;4327854;33;20325;-55
2021/03/05 01:37:52;;;;;;;79.67;40.60;;;;;;;;;;4328285;33;20270;-54
2021/03/05 01:40:24;;;;;;;79.70;41.70;;;;;;;;;;4328434;33;20708;-53
2021/03/05 01:42:49;;;;;;;83.17;42.40;;;;;;;;;;4326999;33;20282;-55
2021/03/05 01:45:19;;;;;;;84.57;44.10;;;;;;;;;;4327644;33;20768;-54
2021/03/05 01:47:46;;;;;;;90.30;46.23;;;;;;;;;;4328308;33;20578;-54
2021/03/05 01:50:16;;;;;;;86.57;47.10;;;;;;;;;;4327964;33;20241;-53
2021/03/05 01:52:45;;;;;;;89.27;46.10;;;;;;;;;;4328216;33;20226;-54
2021/03/05 01:55:10;;;;;;;78.93;40.60;;;;;;;;;;4327727;33;20833;-54
2021/03/05 01:57:36;;;;;;;65.90;37.73;;;;;;;;;;4328059;33;20308;-53
2021/03/05 02:00:03;;;;;;;70.83;38.30;;;;;;;;;;4328027;33;20361;-55
2021/03/05 02:02:29;;;;;;;63.57;34.27;;;;;;;;;;4340462;33;20223;-53
2021/03/05 02:04:54;;;;;;;65.60;35.07;;;;;;;;;;4337830;33;20265;-53
2021/03/05 02:07:20;;;;;;;61.53;34.90;;;;;;;;;;4326661;33;20298;-54
2021/03/05 02:09:45;;;;;;;62.63;34.70;;;;;;;;;;4326833;33;20247;-53
2021/03/05 02:12:11;;;;;;;64.27;36.87;;;;;;;;;;4328160;33;20329;-54
2021/03/05 02:14:36;;;;;;;55.97;34.60;;;;;;;;;;4326808;33;20685;-54
2021/03/05 02:17:29;;;;;;;71.97;38.17;;;;;;;;;;4327897;33;20694;-54
2021/03/05 02:20:01;;;;;;;66.40;35.23;;;;;;;;;;4327014;33;20241;-53
2021/03/05 02:22:51;;;;;;;64.63;36.80;;;;;;;;;;4326816;33;20230;-53
2021/03/05 02:25:29;;;;;;;68.10;35.10;;;;;;;;;;4325573;33;20254;-53
2021/03/05 02:28:23;;;;;;;70.23;37.57;;;;;;;;;;4327795;33;20218;-53
2021/03/05 02:31:04;;;;;;;72.83;36.93;;;;;;;;;;4328025;33;20234;-54
2021/03/05 02:33:37;;;;;;;86.90;50.63;;;;;;;;;;4328146;33;20297;-54
2021/03/05 02:36:09;;;;;;;79.97;47.70;;;;;;;;;;4327778;33;20258;-54
2021/03/05 02:38:36;;;;;;;82.57;51.87;;;;;;;;;;4327522;33;20250;-54
2021/03/05 02:41:04;;;;;;;98.80;53.17;;;;;;;;;;4326412;33;20274;-55
2021/03/05 02:43:32;;;;;;;100.50;54.47;;;;;;;;;;4328028;33;20314;-55
2021/03/05 02:46:04;;;;;;;97.57;57.33;;;;;;;;;;4327490;33;20216;-54
2021/03/05 02:48:36;;;;;;;91.07;54.90;;;;;;;;;;4327429;33;20254;-54
2021/03/05 02:51:04;;;;;;;89.10;50.23;;;;;;;;;;4327755;33;20368;-53
2021/03/05 02:53:32;;;;;;;98.20;53.93;;;;;;;;;;4327857;33;20251;-53
2021/03/05 02:56:03;;;;;;;96.70;51.73;;;;;;;;;;4325896;33;20290;-53
2021/03/05 02:58:30;;;;;;;89.97;51.93;;;;;;;;;;4315854;33;20231;-61
2021/03/05 03:00:56;;;;;;;98.80;52.30;;;;;;;;;;4327421;33;20581;-61
2021/03/05 03:03:23;;;;;;;100.50;49.60;;;;;;;;;;4327286;33;20291;-60
2021/03/05 03:05:51;;;;;;;91.37;49.00;;;;;;;;;;4327561;33;20219;-61
2021/03/05 03:08:18;;;;;;;99.33;52.97;;;;;;;;;;4326956;33;20227;-60
2021/03/05 03:10:48;;;;;;;105.20;55.43;;;;;;;;;;4327640;33;20242;-60
2021/03/05 03:13:14;;;;;;;111.70;56.07;;;;;;;;;;4325889;33;20683;-61
2021/03/05 03:15:41;;;;;;;110.10;55.23;;;;;;;;;;4328114;33;20460;-60
2021/03/05 03:18:11;;;;;;;86.03;47.17;;;;;;;;;;4329734;33;20700;-61
2021/03/05 03:20:37;;;;;;;79.70;42.77;;;;;;;;;;4329906;33;20222;-61
2021/03/05 03:23:06;;;;;;;92.60;47.77;;;;;;;;;;4329542;33;20248;-61
2021/03/05 03:25:32;;;;;;;107.63;52.30;;;;;;;;;;4329012;33;20290;-61
2021/03/05 03:27:57;;;;;;;104.07;52.53;;;;;;;;;;4329666;33;20378;-60
2021/03/05 03:30:24;;;;;;;91.53;47.90;;;;;;;;;;4330159;33;20289;-62
2021/03/05 03:32:52;;;;;;;89.97;46.40;;;;;;;;;;4328636;33;20506;-62
2021/03/05 03:35:17;;;;;;;94.67;48.57;;;;;;;;;;4328799;33;20664;-62
2021/03/05 03:37:44;;;;;;;110.37;54.43;;;;;;;;;;4329640;33;20195;-62
2021/03/05 03:40:18;;;;;;;111.33;57.57;;;;;;;;;;4329755;33;20261;-64
2021/03/05 03:42:45;;;;;;;106.03;52.03;;;;;;;;;;4329791;33;20343;-63
2021/03/05 03:45:12;;;;;;;100.23;51.80;;;;;;;;;;4329881;33;20738;-63
2021/03/05 03:47:38;;;;;;;91.53;48.40;;;;;;;;;;4329704;33;20377;-62
2021/03/05 03:50:09;;;;;;;97.70;49.20;;;;;;;;;;4329625;33;20738;-64
2021/03/05 03:52:42;;;;;;;106.00;51.90;;;;;;;;;;4328408;33;20219;-62
2021/03/05 03:55:09;;;;;;;88.50;45.40;;;;;;;;;;4329936;33;20246;-60
2021/03/05 03:57:40;;;;;;;86.10;48.30;;;;;;;;;;4329568;33;20541;-60
2021/03/05 04:00:06;;;;;;;82.83;45.40;;;;;;;;;;4329488;33;20204;-65
2021/03/05 04:02:33;;;;;;;85.20;45.73;;;;;;;;;;4339060;33;20680;-65
2021/03/05 04:05:05;;;;;;;94.10;46.93;;;;;;;;;;4329208;33;20257;-64
2021/03/05 04:07:31;;;;;;;101.17;48.97;;;;;;;;;;4329914;33;20239;-68
2021/03/05 04:09:59;;;;;;;123.70;69.90;;;;;;;;;;4328034;33;20318;-68
2021/03/05 04:12:27;;;;;;;108.27;68.87;;;;;;;;;;4328508;33;20269;-62
2021/03/05 04:14:54;;;;;;;223.60;145.13;;;;;;;;;;4329091;33;20278;-63
2021/03/05 04:17:19;;;;;;;360.63;192.40;;;;;;;;;;4329951;33;20663;-62
2021/03/05 04:19:47;;;;;;;195.77;104.30;;;;;;;;;;4329175;33;20250;-61
2021/03/05 04:22:13;;;;;;;130.00;68.37;;;;;;;;;;4328216;33;20318;-65
2021/03/05 04:24:38;;;;;;;196.83;98.90;;;;;;;;;;4329532;33;20215;-62
2021/03/05 04:27:08;;;;;;;159.83;76.60;;;;;;;;;;4328964;33;20363;-61
2021/03/05 04:29:34;;;;;;;117.43;62.43;;;;;;;;;;4329005;33;20274;-61
2021/03/05 04:31:59;;;;;;;104.43;54.90;;;;;;;;;;4329079;33;21006;-64
2021/03/05 04:34:25;;;;;;;80.13;44.40;;;;;;;;;;4329198;33;20542;-65
2021/03/05 04:36:50;;;;;;;105.43;54.70;;;;;;;;;;4328029;33;20404;-62
2021/03/05 04:39:16;;;;;;;106.70;46.93;;;;;;;;;;4329333;33;20218;-61
2021/03/05 04:41:41;;;;;;;108.17;52.43;;;;;;;;;;4328960;33;20277;-63
2021/03/05 04:44:07;;;;;;;103.23;56.23;;;;;;;;;;4329003;33;20354;-62
2021/03/05 04:46:33;;;;;;;116.33;59.53;;;;;;;;;;4329618;33;20337;-64
2021/03/05 04:48:58;;;;;;;170.90;78.67;;;;;;;;;;4328916;33;20223;-64
2021/03/05 04:51:24;;;;;;;241.43;113.77;;;;;;;;;;4328732;33;20396;-65
2021/03/05 04:53:49;;;;;;;269.63;126.13;;;;;;;;;;4328284;33;20874;-65
2021/03/05 04:56:15;;;;;;;157.07;76.93;;;;;;;;;;4329144;33;20277;-64
2021/03/05 04:58:40;;;;;;;120.53;59.00;;;;;;;;;;4327628;33;20397;-63
2021/03/05 05:01:05;;;;;;;114.20;55.53;;;;;;;;;;4332934;33;20315;-63
2021/03/05 05:03:31;;;;;;;120.57;60.13;;;;;;;;;;4337680;33;20290;-67
2021/03/05 05:05:57;;;;;;;130.73;62.43;;;;;;;;;;4327621;33;20250;-61
2021/03/05 05:08:22;;;;;;;143.40;74.73;;;;;;;;;;4328793;33;20569;-60
2021/03/05 05:10:48;;;;;;;120.67;59.13;;;;;;;;;;4328614;33;20340;-61
2021/03/05 05:13:13;;;;;;;126.73;60.90;;;;;;;;;;4327924;33;20705;-63
2021/03/05 05:15:39;;;;;;;126.63;67.43;;;;;;;;;;4327495;33;20301;-66
2021/03/05 05:18:05;;;;;;;118.53;64.10;;;;;;;;;;4328456;33;20334;-68
2021/03/05 05:20:30;;;;;;;135.63;67.43;;;;;;;;;;4327758;33;20308;-65
2021/03/05 05:22:56;;;;;;;117.73;63.60;;;;;;;;;;4328381;33;20301;-67
2021/03/05 05:25:21;;;;;;;107.60;58.50;;;;;;;;;;4328728;33;20286;-68
2021/03/05 05:27:48;;;;;;;131.67;56.17;;;;;;;;;;4328693;33;20211;-66
2021/03/05 05:30:14;;;;;;;108.60;56.07;;;;;;;;;;4328814;33;20637;-67
2021/03/05 05:32:39;;;;;;;115.83;67.40;;;;;;;;;;4328039;33;20313;-70
2021/03/05 05:35:05;;;;;;;137.17;71.90;;;;;;;;;;4329034;33;20356;-69
2021/03/05 05:37:31;;;;;;;144.53;76.53;;;;;;;;;;4328339;33;20409;-67
2021/03/05 05:39:56;;;;;;;148.37;82.27;;;;;;;;;;4327949;33;20621;-69
2021/03/05 05:42:22;;;;;;;141.37;80.93;;;;;;;;;;4328177;33;20360;-67
2021/03/05 05:44:49;;;;;;;142.87;79.47;;;;;;;;;;4328141;33;20281;-67
2021/03/05 05:47:16;;;;;;;144.47;74.73;;;;;;;;;;4328413;33;20586;-66
2021/03/05 05:49:43;;;;;;;167.63;78.63;;;;;;;;;;4326832;33;20265;-69
2021/03/05 05:52:13;;;;;;;202.63;109.90;;;;;;;;;;4328155;33;20207;-67
2021/03/05 05:54:41;;;;;;;230.43;114.13;;;;;;;;;;4326554;33;20526;-69
2021/03/05 05:57:07;;;;;;;200.53;97.50;;;;;;;;;;4327970;33;20204;-67
2021/03/05 05:59:33;;;;;;;238.73;106.90;;;;;;;;;;4327644;33;20326;-66
2021/03/05 06:01:58;;;;;;;197.30;98.77;;;;;;;;;;4336952;33;20277;-61
2021/03/05 06:04:25;;;;;;;153.67;89.77;;;;;;;;;;4330114;33;20264;-64
2021/03/05 06:06:51;;;;;;;174.87;94.30;;;;;;;;;;4326001;33;20310;-64
2021/03/05 06:09:17;;;;;;;165.53;92.10;;;;;;;;;;4326880;33;20677;-62
2021/03/05 06:11:43;;;;;;;183.27;94.33;;;;;;;;;;4326488;33;20339;-61
2021/03/05 06:14:10;;;;;;;163.93;84.03;;;;;;;;;;4326890;33;20657;-60
2021/03/05 06:16:54;;;;;;;182.73;85.70;;;;;;;;;;4327944;33;20239;-61
2021/03/05 06:19:23;;;;;;;148.97;76.40;;;;;;;;;;4327350;33;20253;-60
2021/03/05 06:21:49;;;;;;;130.73;75.87;;;;;;;;;;4327546;33;20274;-61
2021/03/05 06:24:15;;;;;;;163.60;82.40;;;;;;;;;;4326848;33;20261;-61
2021/03/05 06:27:00;;;;;;;129.87;76.17;;;;;;;;;;4328365;33;20306;-54
2021/03/05 06:29:29;;;;;;;132.97;72.40;;;;;;;;;;4325926;33;20324;-54
2021/03/05 06:31:59;;;;;;;107.03;53.60;;;;;;;;;;4327197;33;20628;-55
2021/03/05 06:34:25;;;;;;;122.27;64.40;;;;;;;;;;4324998;33;20250;-56
2021/03/05 06:37:05;;;;;;;103.17;60.80;;;;;;;;;;4326023;33;20634;-55
2021/03/05 06:39:32;;;;;;;111.80;59.07;;;;;;;;;;4312424;33;20368;-55
2021/03/05 06:42:04;;;;;;;117.50;60.43;;;;;;;;;;4325625;33;20280;-55
2021/03/05 06:44:31;;;;;;;96.90;54.53;;;;;;;;;;4324777;33;20280;-54
2021/03/05 06:47:08;;;;;;;92.73;46.43;;;;;;;;;;4326674;33;20359;-64
2021/03/05 06:49:34;;;;;;;74.57;44.60;;;;;;;;;;4325235;33;20231;-66
2021/03/05 06:51:59;;;;;;;84.33;46.40;;;;;;;;;;4330063;33;20364;-64
2021/03/05 06:54:30;;;;;;;81.37;45.03;;;;;;;;;;4329002;33;20392;-69
2021/03/05 06:56:56;;;;;;;55.80;31.23;;;;;;;;;;4329982;33;20223;-68
2021/03/05 06:59:23;;;;;;;77.53;41.43;;;;;;;;;;4337839;33;20710;-66
2021/03/05 07:01:51;;;;;;;74.17;40.87;;;;;;;;;;4335942;32;20235;-62
2021/03/05 07:04:21;;;;;;;69.13;37.73;;;;;;;;;;4329824;33;20258;-61
2021/03/05 07:06:54;;;;;;;67.40;35.13;;;;;;;;;;4336235;33;20317;-61
2021/03/05 07:09:29;;;;;;;50.17;32.17;;;;;;;;;;4328767;33;20767;-62
2021/03/05 07:11:55;;;;;;;59.80;29.83;;;;;;;;;;4330346;33;20194;-66
2021/03/05 07:14:29;;;;;;;48.27;28.67;;;;;;;;;;4331470;33;20619;-62
2021/03/05 07:16:55;;;;;;;76.33;37.60;;;;;;;;;;4315323;33;20238;-72
2021/03/05 07:19:24;;;;;;;67.33;36.67;;;;;;;;;;4326365;33;20565;-67
2021/03/05 07:21:51;;;;;;;56.23;35.70;;;;;;;;;;4328333;33;20302;-67
2021/03/05 07:24:19;;;;;;;73.77;32.83;;;;;;;;;;4329840;33;20238;-64
2021/03/05 07:26:56;;;;;;;59.87;31.80;;;;;;;;;;4327927;33;20265;-64
2021/03/05 07:29:28;;;;;;;61.30;33.23;;;;;;;;;;4330076;33;20352;-66
2021/03/05 07:32:00;;;;;;;57.43;32.30;;;;;;;;;;4329657;33;20289;-67
2021/03/05 07:34:27;;;;;;;57.67;33.37;;;;;;;;;;4326026;33;20223;-66
2021/03/05 07:36:56;;;;;;;67.77;34.00;;;;;;;;;;4329175;33;20671;-67
2021/03/05 07:39:44;;;;;;;72.27;33.40;;;;;;;;;;4324078;33;20468;-68
2021/03/05 07:42:10;;;;;;;50.47;31.17;;;;;;;;;;4328438;33;20219;-67
2021/03/05 07:44:38;;;;;;;43.33;25.33;;;;;;;;;;4329396;33;20243;-68
2021/03/05 07:47:08;;;;;;;49.70;30.90;;;;;;;;;;4328656;33;20215;-66
2021/03/05 07:49:35;;;;;;;67.43;42.20;;;;;;;;;;4340193;33;20379;-67
2021/03/05 07:52:01;;;;;;;39.33;23.50;;;;;;;;;;4329551;33;20326;-67
2021/03/05 07:54:39;;;;;;;40.73;21.70;;;;;;;;;;4328524;33;20281;-68
2021/03/05 07:57:06;;;;;;;50.30;27.30;;;;;;;;;;4327320;33;20624;-69
2021/03/05 07:59:37;;;;;;;38.80;21.20;;;;;;;;;;4324810;33;20274;-68
2021/03/05 08:02:03;;;;;;;37.87;21.80;;;;;;;;;;4331687;33;20215;-67
2021/03/05 08:04:55;;;;;;;47.93;25.30;;;;;;;;;;4328074;33;20282;-69
2021/03/05 08:07:22;;;;;;;41.47;22.90;;;;;;;;;;4327733;33;20626;-70
2021/03/05 08:09:47;;;;;;;47.63;26.03;;;;;;;;;;4327063;33;20563;-68
2021/03/05 08:12:33;;;;;;;39.17;19.80;;;;;;;;;;4328353;33;20313;-67
2021/03/05 08:15:18;;;;;;;45.57;22.23;;;;;;;;;;4325487;33;20245;-70
2021/03/05 08:17:47;;;;;;;40.73;19.00;;;;;;;;;;4322471;33;20259;-69
2021/03/05 08:20:19;;;;;;;44.70;20.93;;;;;;;;;;4328364;33;20238;-67
2021/03/05 08:22:56;;;;;;;33.67;18.50;;;;;;;;;;4327797;33;20345;-66
2021/03/05 08:25:24;;;;;;;24.17;15.63;;;;;;;;;;4328744;33;20931;-67
2021/03/05 08:27:49;;;;;;;28.03;17.07;;;;;;;;;;4327883;33;20211;-68
2021/03/05 08:30:17;;;;;;;31.27;15.27;;;;;;;;;;4327979;33;20801;-67
2021/03/05 08:32:49;;;;;;;26.10;16.13;;;;;;;;;;4327768;33;20219;-70
2021/03/05 08:35:30;;;;;;;22.93;15.53;;;;;;;;;;4328450;33;20309;-69
2021/03/05 08:38:08;;;;;;;26.90;15.80;;;;;;;;;;4327920;33;20274;-69
2021/03/05 08:40:37;;;;;;;37.37;15.00;;;;;;;;;;4319742;33;20269;-67
2021/03/05 08:43:19;;;;;;;26.93;15.83;;;;;;;;;;4328332;33;20251;-68
2021/03/05 08:45:47;;;;;;;35.40;20.13;;;;;;;;;;4328120;33;20225;-68
2021/03/05 08:48:27;;;;;;;34.03;21.23;;;;;;;;;;4327426;33;20261;-68
2021/03/05 08:51:06;;;;;;;48.77;28.73;;;;;;;;;;4327146;33;20235;-66
2021/03/05 08:53:48;;;;;;;50.03;29.57;;;;;;;;;;4328519;33;20289;-66
2021/03/05 08:56:32;;;;;;;47.13;27.57;;;;;;;;;;4334281;33;20551;-67
2021/03/05 08:58:59;;;;;;;32.13;20.77;;;;;;;;;;4327760;33;20254;-67
2021/03/05 09:01:26;;;;;;;37.30;20.37;;;;;;;;;;4328661;33;20550;-67
2021/03/05 09:03:52;;;;;;;32.90;19.17;;;;;;;;;;4328062;33;20590;-68
2021/03/05 09:06:17;;;;;;;34.00;18.33;;;;;;;;;;4327780;33;20215;-69
2021/03/05 09:08:42;;;;;;;29.43;17.73;;;;;;;;;;4326463;33;20749;-71
2021/03/05 09:11:09;;;;;;;18.97;11.33;;;;;;;;;;4327839;33;20365;-67
2021/03/05 09:13:35;;;;;;;16.90;11.87;;;;;;;;;;4327076;33;20291;-68
2021/03/05 09:16:04;;;;;;;21.20;13.63;;;;;;;;;;4327797;33;20290;-70
2021/03/05 09:18:30;;;;;;;23.40;13.73;;;;;;;;;;4327830;33;20309;-69
2021/03/05 09:21:10;;;;;;;25.73;11.47;;;;;;;;;;4327929;33;20285;-69
2021/03/05 09:23:40;;;;;;;20.37;11.70;;;;;;;;;;4327473;33;20230;-68
2021/03/05 09:26:07;;;;;;;16.43;10.27;;;;;;;;;;4327088;33;20257;-71
2021/03/05 09:28:42;;;;;;;16.07;10.00;;;;;;;;;;4324572;33;20255;-69
2021/03/05 09:31:10;;;;;;;17.60;11.53;;;;;;;;;;4322882;33;20227;-69
2021/03/05 09:33:37;;;;;;;18.17;11.37;;;;;;;;;;4327692;33;20566;-63
2021/03/05 09:36:11;;;;;;;22.50;12.47;;;;;;;;;;4327515;33;20211;-66
2021/03/05 09:38:38;;;;;;;16.70;10.83;;;;;;;;;;4326836;33;20249;-65
2021/03/05 09:41:14;;;;;;;25.13;11.93;;;;;;;;;;4326133;33;20265;-65
2021/03/05 09:43:41;;;;;;;32.13;18.60;;;;;;;;;;4326823;33;20294;-65
2021/03/05 09:46:21;;;;;;;21.83;12.83;;;;;;;;;;4327309;33;20641;-64
2021/03/05 09:48:49;;;;;;;22.23;13.30;;;;;;;;;;4326608;33;20231;-63
2021/03/05 09:51:15;;;;;;;22.57;14.10;;;;;;;;;;4327295;33;20241;-62
2021/03/05 09:53:54;;;;;;;28.50;17.63;;;;;;;;;;4325538;33;20665;-62
2021/03/05 09:56:25;;;;;;;23.73;14.47;;;;;;;;;;4350354;32;20297;-64
2021/03/05 09:58:55;;;;;;;20.97;15.27;;;;;;;;;;4326979;33;20317;-64
2021/03/05 10:01:21;;;;;;;25.40;15.70;;;;;;;;;;4349968;32;20354;-68
2021/03/05 10:03:57;;;;;;;24.13;16.33;;;;;;;;;;4327123;33;20232;-60
2021/03/05 10:06:23;;;;;;;28.80;15.60;;;;;;;;;;4327561;33;20227;-62
2021/03/05 10:08:58;;;;;;;21.13;13.67;;;;;;;;;;4333748;33;20329;-66
2021/03/05 10:11:44;;;;;;;23.47;13.23;;;;;;;;;;4325635;33;20237;-66
2021/03/05 10:14:10;;;;;;;24.97;12.83;;;;;;;;;;4325834;33;20294;-63
2021/03/05 10:16:37;;;;;;;22.37;13.37;;;;;;;;;;4325970;33;20377;-66
2021/03/05 10:19:16;;;;;;;22.00;15.50;;;;;;;;;;4326776;33;20689;-65
2021/03/05 10:21:42;;;;;;;23.30;12.53;;;;;;;;;;4327116;33;20615;-63
2021/03/05 10:24:13;;;;;;;25.93;14.00;;;;;;;;;;4328833;33;20262;-61
2021/03/05 10:29:23;;;;;;;22.07;14.53;;;;;;;;;;4326942;33;20774;-62
2021/03/05 10:31:51;;;;;;;22.53;13.23;;;;;;;;;;4328741;33;20286;-65
2021/03/05 10:34:31;;;;;;;34.70;19.70;;;;;;;;;;4355259;32;20725;-66
2021/03/05 10:37:02;;;;;;;24.23;15.03;;;;;;;;;;4331088;33;20834;-64
2021/03/05 10:39:36;;;;;;;30.70;15.37;;;;;;;;;;4329744;33;20263;-65
2021/03/05 10:42:05;;;;;;;23.73;15.93;;;;;;;;;;4353619;32;20246;-67
2021/03/05 10:44:32;;;;;;;34.03;13.80;;;;;;;;;;4329137;33;20341;-64
2021/03/05 10:47:04;;;;;;;22.87;11.00;;;;;;;;;;4330516;33;20235;-65
2021/03/05 10:49:29;;;;;;;24.07;14.53;;;;;;;;;;4329731;33;20676;-65
2021/03/05 10:51:56;;;;;;;19.37;12.10;;;;;;;;;;4329192;33;20383;-65
2021/03/05 10:54:21;;;;;;;19.83;12.30;;;;;;;;;;4330593;33;20664;-67
2021/03/05 10:56:51;;;;;;;19.97;10.13;;;;;;;;;;4330606;33;20324;-62
2021/03/05 10:59:19;;;;;;;21.63;11.07;;;;;;;;;;4330698;33;20291;-65
2021/03/05 11:01:45;;;;;;;18.57;12.23;;;;;;;;;;4341996;32;20239;-65
2021/03/05 11:04:10;;;;;;;13.27;9.90;;;;;;;;;;4330989;33;20340;-62
2021/03/05 11:06:36;;;;;;;26.50;9.90;;;;;;;;;;4331817;33;20629;-67
2021/03/05 11:09:04;;;;;;;15.00;9.83;;;;;;;;;;4330431;33;20689;-67
2021/03/05 11:11:30;;;;;;;17.27;7.70;;;;;;;;;;4330776;33;20571;-68
2021/03/05 11:13:55;;;;;;;15.20;5.93;;;;;;;;;;4331204;33;20293;-66
2021/03/05 11:16:21;;;;;;;14.17;7.03;;;;;;;;;;4331482;33;20324;-66
2021/03/05 11:18:46;;;;;;;11.90;7.13;;;;;;;;;;4331172;33;20226;-68
2021/03/05 11:21:12;;;;;;;14.53;8.63;;;;;;;;;;4331378;33;20673;-68
2021/03/05 11:23:37;;;;;;;10.23;6.53;;;;;;;;;;4327008;33;20250;-65
2021/03/05 11:26:03;;;;;;;10.52;6.43;;;;;;;;;;4331074;33;20297;-65
2021/03/05 11:28:28;;;;;;;10.82;6.65;;;;;;;;;;4329610;33;20309;-69
2021/03/05 11:30:53;;;;;;;9.80;5.82;;;;;;;;;;4330355;33;20666;-67
2021/03/05 11:33:19;;;;;;;10.60;6.07;;;;;;;;;;4331328;33;20257;-68
2021/03/05 11:35:45;;;;;;;11.30;7.32;;;;;;;;;;4330052;33;20324;-68
2021/03/05 11:38:10;;;;;;;12.27;6.40;;;;;;;;;;4327918;33;20349;-66
2021/03/05 11:40:36;;;;;;;8.73;6.10;;;;;;;;;;4332240;33;20300;-67
2021/03/05 11:43:04;;;;;;;12.73;7.35;;;;;;;;;;4327409;33;20219;-68
2021/03/05 11:45:29;;;;;;;11.05;4.25;;;;;;;;;;4328977;33;20727;-70
2021/03/05 11:47:55;;;;;;;8.63;3.22;;;;;;;;;;4327668;33;20255;-71
2021/03/05 11:50:21;;;;;;;12.23;3.53;;;;;;;;;;4329071;33;20784;-70
2021/03/05 11:52:46;;;;;;;14.43;4.75;;;;;;;;;;4327256;33;20223;-71
2021/03/05 11:55:12;;;;;;;5.53;3.67;;;;;;;;;;4327707;33;20527;-68
2021/03/05 11:57:38;;;;;;;5.97;2.62;;;;;;;;;;4328727;33;20301;-73
2021/03/05 12:00:06;;;;;;;6.95;3.25;;;;;;;;;;4328775;33;20354;-73
2021/03/05 12:02:32;;;;;;;15.27;3.28;;;;;;;;;;4328154;33;20215;-70
2021/03/05 12:04:57;;;;;;;22.23;4.82;;;;;;;;;;4328193;33;20346;-70
2021/03/05 12:07:23;;;;;;;7.35;3.20;;;;;;;;;;4328069;33;20294;-72
2021/03/05 12:09:48;;;;;;;4.87;2.62;;;;;;;;;;4328260;33;20226;-69
2021/03/05 12:12:13;;;;;;;11.43;3.53;;;;;;;;;;4339486;33;20708;-70
2021/03/05 12:14:39;;;;;;;5.57;3.15;;;;;;;;;;4328314;33;20230;-70
2021/03/05 12:17:05;;;;;;;4.15;2.45;;;;;;;;;;4328812;33;20735;-68
2021/03/05 12:19:31;;;;;;;8.48;2.60;;;;;;;;;;4328347;33;20664;-69
2021/03/05 12:21:56;;;;;;;9.40;2.72;;;;;;;;;;4328194;33;20302;-70
2021/03/05 12:24:22;;;;;;;10.68;3.85;;;;;;;;;;4328263;33;20230;-70
2021/03/05 12:26:47;;;;;;;7.00;3.30;;;;;;;;;;4327906;33;20706;-70
2021/03/05 12:29:13;;;;;;;2.42;1.75;;;;;;;;;;4328646;33;20251;-71
2021/03/05 12:31:38;;;;;;;4.22;1.70;;;;;;;;;;4327967;33;20207;-68
2021/03/05 12:34:04;;;;;;;6.53;2.25;;;;;;;;;;4326067;33;20262;-73
2021/03/05 12:36:30;;;;;;;6.55;2.35;;;;;;;;;;4327608;33;20318;-69
2021/03/05 12:38:56;;;;;;;9.95;3.78;;;;;;;;;;4326995;33;20314;-71
2021/03/05 12:41:22;;;;;;;5.07;2.62;;;;;;;;;;4352484;32;20348;-71
2021/03/05 12:43:47;;;;;;;5.87;2.78;;;;;;;;;;4328874;33;20231;-69
2021/03/05 12:46:13;;;;;;;8.57;2.08;;;;;;;;;;4328712;33;20749;-71
2021/03/05 12:48:39;;;;;;;6.50;1.73;;;;;;;;;;4328161;33;20431;-68
2021/03/05 12:51:04;;;;;;;2.95;1.92;;;;;;;;;;4328611;33;20286;-62
2021/03/05 12:53:30;;;;;;;5.12;1.75;;;;;;;;;;4326655;33;20329;-64
2021/03/05 12:55:57;;;;;;;2.28;1.23;;;;;;;;;;4328502;33;20386;-64
2021/03/05 12:58:22;;;;;;;2.37;1.55;;;;;;;;;;4326816;33;20301;-64
2021/03/05 13:00:48;;;;;;;3.62;2.42;;;;;;;;;;4329212;33;20720;-67
2021/03/05 13:03:13;;;;;;;4.78;1.90;;;;;;;;;;4326615;33;20665;-67
2021/03/05 13:05:39;;;;;;;5.35;3.55;;;;;;;;;;4326385;33;20329;-63
2021/03/05 13:08:04;;;;;;;6.90;4.18;;;;;;;;;;4326841;33;20299;-60
2021/03/05 13:10:30;;;;;;;13.65;2.25;;;;;;;;;;4327340;33;20290;-63
2021/03/05 13:12:55;;;;;;;2.58;1.75;;;;;;;;;;4331629;33;20628;-63
2021/03/05 13:15:21;;;;;;;2.62;2.03;;;;;;;;;;4326104;33;20334;-63
2021/03/05 13:17:47;;;;;;;3.00;1.37;;;;;;;;;;4327444;33;20302;-64
2021/03/05 13:20:12;;;;;;;5.85;1.70;;;;;;;;;;4328259;33;20282;-64
2021/03/05 13:22:38;;;;;;;7.62;1.90;;;;;;;;;;4326687;33;20705;-64
2021/03/05 13:25:04;;;;;;;3.00;1.95;;;;;;;;;;4327718;33;20404;-64
2021/03/05 13:27:29;;;;;;;5.00;1.70;;;;;;;;;;4328045;33;20298;-64
2021/03/05 13:29:55;;;;;;;6.07;1.73;;;;;;;;;;4328153;33;20305;-63
2021/03/05 13:32:20;;;;;;;3.58;1.83;;;;;;;;;;4328175;33;20380;-63
2021/03/05 13:34:46;;;;;;;7.50;2.37;;;;;;;;;;4327641;33;20685;-61
2021/03/05 13:37:11;;;;;;;4.03;2.50;;;;;;;;;;4328324;33;20656;-64
2021/03/05 13:39:37;;;;;;;3.22;2.22;;;;;;;;;;4326581;33;20265;-65
2021/03/05 13:42:03;;;;;;;3.12;2.03;;;;;;;;;;4328061;33;20308;-65
2021/03/05 13:44:28;;;;;;;3.83;2.53;;;;;;;;;;4326435;33;20235;-66
2021/03/05 13:46:54;;;;;;;5.18;3.15;;;;;;;;;;4327347;33;20349;-65
2021/03/05 13:49:19;;;;;;;3.75;2.83;;;;;;;;;;4322038;33;20285;-65
2021/03/05 13:51:45;;;;;;;5.43;3.87;;;;;;;;;;4348381;32;20261;-65
2021/03/05 13:54:10;;;;;;;10.88;5.65;;;;;;;;;;4344833;32;20337;-63
2021/03/05 13:56:36;;;;;;;11.27;5.68;;;;;;;;;;4325227;33;20259;-66
2021/03/05 13:59:01;;;;;;;17.92;7.10;;;;;;;;;;4324667;33;20301;-64
2021/03/05 14:01:27;;;;;;;11.20;5.40;;;;;;;;;;4320674;33;20241;-63
2021/03/05 14:03:52;;;;;;;7.10;3.80;;;;;;;;;;4324123;33;20227;-62
2021/03/05 14:06:18;;;;;;;7.90;3.45;;;;;;;;;;4325968;33;20323;-63
2021/03/05 14:08:43;;;;;;;61.92;30.95;;;;;;;;;;4326821;33;20286;-64
2021/03/05 14:11:09;;;;;;;18.30;10.20;;;;;;;;;;4327947;33;20318;-63
2021/03/05 14:13:36;;;;;;;49.90;22.95;;;;;;;;;;4327329;33;20277;-63
2021/03/05 14:16:01;;;;;;;7.85;4.75;;;;;;;;;;4327157;33;20251;-62
2021/03/05 14:18:27;;;;;;;10.50;6.18;;;;;;;;;;4327437;33;20247;-64
2021/03/05 14:20:53;;;;;;;22.15;9.52;;;;;;;;;;4326431;33;20326;-65
2021/03/05 14:23:19;;;;;;;6.50;3.50;;;;;;;;;;4326917;33;20289;-63
2021/03/05 14:25:45;;;;;;;8.63;4.65;;;;;;;;;;4326975;33;20376;-64